気象予報士の航空気象 不安定な一日

*All archives   *Admin

スポンサーサイト

上記の広告は1ヶ月以上更新のないブログに表示されています。
新しい記事を書く事で広告が消せます。
--:--  |  スポンサー広告  |  EDIT  |  Top↑

2009.10.26 (Mon)

不安定な一日

 今日は、風が強いですね。


台風20号が近くにいますし、ぜんせんは刺激されていますし。


羽田空港の時系列Metarを確認したところ、北風が20-30ktほど吹き続けています。


10000から15000ft付近にモデレート・タービュランスの通報もあり、不安定な飛行になっている様です。


RJTT 260500Z 35020KT 5000 RA BR FEW006 SCT008 BKN009 16/14 Q1004 RMK 1ST006 3ST008 6ST009 A2965 MOD TURB BTN 13000 AND 8000FT 10NM E TATEYAMA BY B777 AT 0440 AND BTN 13000 AND 11000FT 10NM S TATEYAMA BY B737 AT 0453





ブログランキングに参加しています。
にほんブログ村 環境ブログ 天気・気象学へ
にほんブログ村
応援クリックをおねがします。


以下、アフィリエイトサイトです。





スポンサーサイト
22:15  |  気象・天気  |  TB(0)  |  CM(0)  |  EDIT  |  Top↑

コメントを投稿する


 管理者だけに表示  (非公開コメント投稿可能)

▲PageTop

この記事のトラックバックURL

→http://weathereucalyptus.blog115.fc2.com/tb.php/280-1a919568
この記事にトラックバックする(FC2ブログユーザー)

この記事へのトラックバック

▲PageTop

 | BLOGTOP | 
上記広告は1ヶ月以上更新のないブログに表示されています。新しい記事を書くことで広告を消せます。